createdAt,value
2018-05-31T00:00:24.700Z,3.90
2018-05-31T00:02:51.673Z,4.30
2018-05-31T00:05:18.612Z,4.53
2018-05-31T00:07:45.535Z,4.43
2018-05-31T00:10:12.474Z,4.63
2018-05-31T00:12:39.384Z,4.40
2018-05-31T00:15:06.322Z,4.13
2018-05-31T00:17:33.440Z,4.03
2018-05-31T00:20:01.182Z,4.60
2018-05-31T00:22:28.232Z,4.20
2018-05-31T00:24:55.126Z,3.53
2018-05-31T00:27:22.259Z,4.33
2018-05-31T00:29:49.399Z,4.00
2018-05-31T00:32:16.507Z,4.10
2018-05-31T00:34:43.395Z,4.13
2018-05-31T00:37:10.348Z,4.67
2018-05-31T00:39:37.261Z,4.30
2018-05-31T00:42:04.912Z,4.50
2018-05-31T00:44:31.832Z,4.50
2018-05-31T00:46:58.760Z,4.47
2018-05-31T00:49:25.688Z,4.03
2018-05-31T00:51:52.604Z,3.93
2018-05-31T00:54:20.261Z,4.03
2018-05-31T00:56:47.187Z,4.00
2018-05-31T00:59:14.109Z,4.43
2018-05-31T01:01:41.056Z,4.23
2018-05-31T01:04:08.020Z,4.23
2018-05-31T01:06:34.931Z,4.73
2018-05-31T01:09:01.836Z,4.33
2018-05-31T01:11:28.757Z,3.67
2018-05-31T01:13:55.665Z,4.07
2018-05-31T01:16:22.572Z,4.07
2018-05-31T01:18:49.539Z,4.60
2018-05-31T01:21:16.460Z,4.20
2018-05-31T01:23:43.405Z,4.20
2018-05-31T01:26:11.068Z,4.23
2018-05-31T01:28:38.727Z,4.50
2018-05-31T01:31:06.462Z,5.07
2018-05-31T01:33:33.429Z,5.37
2018-05-31T01:36:00.353Z,5.30
2018-05-31T01:38:32.435Z,5.57
2018-05-31T01:40:59.351Z,5.93
2018-05-31T01:43:27.117Z,6.70
2018-05-31T01:45:54.069Z,6.80
2018-05-31T01:48:21.001Z,7.80
2018-05-31T01:50:47.943Z,6.40
2018-05-31T01:53:14.859Z,6.17
2018-05-31T01:55:41.814Z,6.70
2018-05-31T01:58:08.730Z,6.23
2018-05-31T02:00:36.392Z,5.73
2018-05-31T02:03:04.050Z,6.60
2018-05-31T02:05:31.727Z,5.37
2018-05-31T02:07:59.432Z,6.00
2018-05-31T02:10:26.346Z,5.53
2018-05-31T02:12:53.260Z,7.17
2018-05-31T02:15:20.977Z,6.63
2018-05-31T02:17:47.937Z,5.87
2018-05-31T02:20:14.869Z,6.20
2018-05-31T02:22:41.814Z,6.10
2018-05-31T02:25:08.757Z,6.10
2018-05-31T02:27:35.671Z,5.50
2018-05-31T02:30:02.727Z,5.47
2018-05-31T02:32:29.704Z,5.40
2018-05-31T02:34:56.661Z,5.60
2018-05-31T02:37:23.606Z,5.07
2018-05-31T02:39:50.532Z,5.73
2018-05-31T02:42:17.459Z,5.17
2018-05-31T02:44:44.361Z,6.03
2018-05-31T02:47:11.262Z,5.97
2018-05-31T02:49:38.953Z,5.03
2018-05-31T02:52:05.900Z,5.47
2018-05-31T02:54:32.837Z,5.37
2018-05-31T02:56:59.755Z,5.53
2018-05-31T02:59:26.710Z,5.37
2018-05-31T03:01:53.637Z,5.53
2018-05-31T03:04:20.553Z,5.90
2018-05-31T03:06:47.464Z,5.77
2018-05-31T03:09:14.373Z,5.90
2018-05-31T03:11:41.300Z,5.90
2018-05-31T03:14:08.257Z,5.53
2018-05-31T03:16:35.914Z,5.97
2018-05-31T03:19:02.847Z,5.80
2018-05-31T03:21:29.772Z,5.67
2018-05-31T03:23:56.710Z,5.80
2018-05-31T03:26:24.408Z,5.37
2018-05-31T03:28:51.316Z,5.30
2018-05-31T03:31:18.273Z,5.70
2018-05-31T03:33:45.248Z,5.13
2018-05-31T03:36:12.223Z,5.60
2018-05-31T03:38:39.213Z,5.70
2018-05-31T03:41:06.188Z,4.83
2018-05-31T03:43:33.129Z,5.43
2018-05-31T03:46:00.784Z,4.90
2018-05-31T03:48:27.721Z,5.47
2018-05-31T03:50:54.636Z,5.00
2018-05-31T03:53:22.288Z,4.70
2018-05-31T03:55:49.960Z,4.60
2018-05-31T03:58:16.916Z,4.50
2018-05-31T04:00:43.851Z,5.27
2018-05-31T04:03:10.846Z,5.23
2018-05-31T04:05:37.761Z,5.33
2018-05-31T04:08:04.692Z,5.30
2018-05-31T04:10:32.353Z,5.23
2018-05-31T04:13:00.077Z,5.17
2018-05-31T04:15:28.705Z,5.10
2018-05-31T04:17:56.373Z,5.10
2018-05-31T04:20:23.338Z,5.03
2018-05-31T04:22:50.247Z,4.40
2018-05-31T04:25:17.172Z,4.70
2018-05-31T04:27:44.076Z,4.73
2018-05-31T04:30:11.000Z,4.80
2018-05-31T04:32:37.905Z,4.80
2018-05-31T04:35:04.932Z,5.03
2018-05-31T04:37:31.864Z,5.30
2018-05-31T04:39:59.959Z,5.33
2018-05-31T04:42:26.953Z,4.80
2018-05-31T04:44:54.577Z,5.10
2018-05-31T04:47:21.476Z,5.23
2018-05-31T04:49:48.376Z,4.43
2018-05-31T04:52:15.412Z,4.93
2018-05-31T04:54:42.357Z,5.33
2018-05-31T04:57:09.360Z,4.60
2018-05-31T04:59:36.293Z,5.00
2018-05-31T05:02:03.196Z,5.07
2018-05-31T05:04:30.920Z,5.30
2018-05-31T05:06:57.849Z,5.10
2018-05-31T05:09:24.760Z,5.10
2018-05-31T05:11:52.383Z,5.30
2018-05-31T05:14:19.569Z,5.23
2018-05-31T05:16:47.208Z,5.03
2018-05-31T05:19:14.091Z,5.17
2018-05-31T05:21:41.024Z,5.30
2018-05-31T05:24:07.933Z,5.00
2018-05-31T05:26:34.912Z,5.27
2018-05-31T05:29:01.832Z,5.57
2018-05-31T05:31:28.731Z,5.00
2018-05-31T05:33:55.666Z,5.63
2018-05-31T05:36:22.671Z,5.20
2018-05-31T05:38:49.672Z,5.90
2018-05-31T05:41:16.556Z,5.93
2018-05-31T05:43:43.484Z,4.77
2018-05-31T05:46:13.540Z,5.43
2018-05-31T05:48:41.180Z,5.33
2018-05-31T05:51:08.080Z,5.57
2018-05-31T05:53:34.993Z,5.60
2018-05-31T05:56:02.632Z,5.33
2018-05-31T05:58:29.524Z,5.57
2018-05-31T06:00:56.465Z,4.53
2018-05-31T06:03:23.408Z,5.17
2018-05-31T06:05:50.322Z,4.87
2018-05-31T06:08:17.972Z,4.57
2018-05-31T06:10:44.881Z,5.40
2018-05-31T06:13:11.800Z,4.60
2018-05-31T06:15:38.741Z,4.40
2018-05-31T06:18:05.968Z,5.03
2018-05-31T06:20:33.608Z,5.07
2018-05-31T06:23:00.509Z,5.50
2018-05-31T06:25:27.413Z,4.50
2018-05-31T06:27:54.321Z,4.40
2018-05-31T06:30:21.204Z,5.47
2018-05-31T06:32:48.841Z,5.33
2018-05-31T06:35:15.737Z,5.17
2018-05-31T06:37:42.651Z,5.13
2018-05-31T06:40:09.568Z,5.40
2018-05-31T06:42:36.447Z,6.03
2018-05-31T06:45:04.332Z,5.43
2018-05-31T06:47:31.956Z,5.47
2018-05-31T06:49:58.873Z,5.33
2018-05-31T06:52:25.752Z,5.97
2018-05-31T06:54:52.637Z,5.80
2018-05-31T06:57:19.545Z,5.97
2018-05-31T06:59:47.184Z,6.07
2018-05-31T07:02:14.116Z,5.07
2018-05-31T07:04:41.001Z,5.53
2018-05-31T07:07:08.629Z,5.97
2018-05-31T07:09:35.504Z,6.10
2018-05-31T07:12:03.199Z,6.50
2018-05-31T07:14:30.096Z,6.53
2018-05-31T07:16:56.973Z,7.00
2018-05-31T07:19:23.865Z,6.73
2018-05-31T07:21:52.264Z,7.10
2018-05-31T07:24:19.156Z,6.50
2018-05-31T07:26:46.077Z,6.83
2018-05-31T07:29:13.725Z,6.63
2018-05-31T07:31:41.394Z,7.37
2018-05-31T07:34:09.089Z,7.33
2018-05-31T07:36:35.985Z,6.03
2018-05-31T07:39:03.157Z,7.00
2018-05-31T07:41:30.061Z,7.03
2018-05-31T07:43:56.988Z,5.60
2018-05-31T07:46:23.887Z,5.57
2018-05-31T07:48:50.789Z,6.10
2018-05-31T07:51:17.750Z,5.27
2018-05-31T07:53:44.646Z,5.97
2018-05-31T07:56:11.545Z,6.30
2018-05-31T07:58:38.494Z,6.10
2018-05-31T08:01:06.137Z,6.47
2018-05-31T08:03:33.032Z,5.83
2018-05-31T08:06:00.059Z,6.10
2018-05-31T08:08:27.001Z,6.00
2018-05-31T08:10:54.670Z,6.70
2018-05-31T08:13:22.309Z,6.17
2018-05-31T08:15:49.213Z,6.63
2018-05-31T08:18:16.102Z,9.63
2018-05-31T08:20:43.812Z,6.30
2018-05-31T08:23:10.697Z,6.73
2018-05-31T08:25:37.651Z,6.93
2018-05-31T08:28:04.573Z,6.60
2018-05-31T08:30:31.543Z,6.07
2018-05-31T08:32:58.486Z,6.17
2018-05-31T08:35:25.419Z,5.50
2018-05-31T08:37:52.307Z,6.10
2018-05-31T08:40:19.649Z,6.40
2018-05-31T08:42:46.544Z,5.83
2018-05-31T08:45:13.459Z,5.53
2018-05-31T08:47:40.368Z,6.00
2018-05-31T08:50:08.046Z,5.97
2018-05-31T08:52:34.961Z,5.60
2018-05-31T08:55:01.896Z,5.63
2018-05-31T08:57:28.800Z,5.23
2018-05-31T08:59:55.722Z,4.97
2018-05-31T09:02:22.623Z,4.53
2018-05-31T09:04:49.536Z,5.10
2018-05-31T09:07:16.433Z,4.77
2018-05-31T09:09:43.324Z,4.50
2018-05-31T09:12:10.227Z,4.63
2018-05-31T09:14:37.145Z,5.13
2018-05-31T09:17:04.073Z,4.50
2018-05-31T09:19:30.964Z,5.50
2018-05-31T09:21:57.861Z,5.83
2018-05-31T09:24:25.619Z,4.73
2018-05-31T09:26:52.513Z,5.00
2018-05-31T09:29:19.425Z,5.20
2018-05-31T09:31:46.337Z,5.20
2018-05-31T09:34:13.356Z,5.17
2018-05-31T09:36:40.992Z,5.30
2018-05-31T09:39:07.904Z,4.43
2018-05-31T09:41:34.942Z,4.83
2018-05-31T09:44:01.907Z,4.60
2018-05-31T09:46:28.816Z,4.93
2018-05-31T09:48:55.735Z,4.90
2018-05-31T09:51:26.181Z,4.40
2018-05-31T09:53:53.084Z,5.30
2018-05-31T09:56:20.011Z,4.53
2018-05-31T09:58:46.960Z,3.90
2018-05-31T10:01:16.349Z,4.33
2018-05-31T10:03:43.257Z,4.87
2018-05-31T10:06:10.150Z,4.07
2018-05-31T10:08:37.074Z,3.30
2018-05-31T10:11:04.855Z,2.83
2018-05-31T10:13:31.761Z,4.00
2018-05-31T10:15:58.693Z,3.30
2018-05-31T10:18:26.334Z,3.47
2018-05-31T10:20:53.981Z,3.47
2018-05-31T10:23:21.430Z,3.57
2018-05-31T10:25:48.353Z,2.30
2018-05-31T10:28:15.244Z,2.40
2018-05-31T10:30:42.172Z,2.40
2018-05-31T10:33:09.057Z,2.60
2018-05-31T10:35:35.992Z,2.57
2018-05-31T10:38:03.704Z,3.10
2018-05-31T10:40:30.749Z,3.00
2018-05-31T10:42:57.963Z,2.70
2018-05-31T10:45:24.873Z,2.63
2018-05-31T10:47:51.769Z,2.53
2018-05-31T10:50:20.066Z,2.40
2018-05-31T10:52:47.440Z,1.90
2018-05-31T10:55:14.948Z,2.23
2018-05-31T10:57:42.347Z,2.57
2018-05-31T11:00:09.893Z,1.70
2018-05-31T11:02:37.336Z,2.10
2018-05-31T11:05:05.392Z,2.20
2018-05-31T11:07:33.219Z,2.40
2018-05-31T11:10:01.522Z,2.43
2018-05-31T11:12:29.348Z,2.23
2018-05-31T11:14:57.696Z,1.90
2018-05-31T11:17:25.407Z,1.67
2018-05-31T11:19:53.712Z,2.30
2018-05-31T11:22:21.343Z,2.40
2018-05-31T11:24:48.680Z,2.20
2018-05-31T11:27:16.231Z,2.03
2018-05-31T11:29:45.223Z,1.87
2018-05-31T11:32:12.847Z,2.17
2018-05-31T11:34:40.262Z,1.83
2018-05-31T11:37:08.423Z,3.20
2018-05-31T11:39:36.000Z,2.67
2018-05-31T11:42:04.661Z,2.85
2018-05-31T11:44:33.552Z,2.80
2018-05-31T11:47:01.389Z,2.10
2018-05-31T11:49:28.903Z,2.20
2018-05-31T11:51:56.547Z,2.50
2018-05-31T11:54:24.460Z,3.00
2018-05-31T11:56:55.573Z,3.87
2018-05-31T11:59:24.599Z,2.90
2018-05-31T12:01:52.709Z,3.13
2018-05-31T12:04:20.893Z,3.70
2018-05-31T12:06:48.571Z,3.27
2018-05-31T12:09:16.205Z,2.73
2018-05-31T12:11:43.464Z,2.97
2018-05-31T12:14:11.034Z,2.60
2018-05-31T12:16:38.792Z,2.33
2018-05-31T12:19:06.253Z,2.33
2018-05-31T12:21:35.202Z,1.73
2018-05-31T12:24:02.988Z,1.70
2018-05-31T12:26:31.284Z,2.00
2018-05-31T12:28:58.879Z,1.87
2018-05-31T12:31:26.607Z,2.43
2018-05-31T12:33:54.163Z,1.70
2018-05-31T12:36:21.504Z,1.60
2018-05-31T12:38:48.987Z,2.23
2018-05-31T12:41:16.405Z,1.87
2018-05-31T12:43:43.799Z,1.73
2018-05-31T12:46:11.448Z,1.80
2018-05-31T12:48:39.297Z,2.10
2018-05-31T12:51:07.565Z,2.47
2018-05-31T12:53:35.370Z,2.13
2018-05-31T12:56:03.661Z,2.33
2018-05-31T12:58:31.421Z,2.13
2018-05-31T13:00:59.597Z,2.87
2018-05-31T13:03:27.628Z,2.53
2018-05-31T13:05:55.127Z,2.20
2018-05-31T13:08:22.419Z,3.40
2018-05-31T13:10:50.211Z,3.00
2018-05-31T13:13:17.814Z,2.50
2018-05-31T13:15:45.203Z,2.60
2018-05-31T13:18:12.100Z,3.33
2018-05-31T13:20:39.751Z,2.97
2018-05-31T13:23:07.390Z,2.87
2018-05-31T13:25:34.277Z,3.00
2018-05-31T13:28:01.913Z,3.10
2018-05-31T13:30:28.830Z,3.10
2018-05-31T13:32:55.734Z,2.40
2018-05-31T13:35:22.648Z,2.50
2018-05-31T13:37:49.580Z,2.70
2018-05-31T13:40:16.493Z,2.80
2018-05-31T13:42:43.400Z,2.50
2018-05-31T13:45:10.344Z,3.53
2018-05-31T13:47:38.062Z,3.10
2018-05-31T13:50:05.011Z,3.73
2018-05-31T13:52:31.983Z,2.80
2018-05-31T13:54:58.881Z,4.37
2018-05-31T13:57:25.814Z,3.37
2018-05-31T13:59:52.724Z,4.00
2018-05-31T14:02:19.638Z,3.47
2018-05-31T14:04:46.549Z,3.60
2018-05-31T14:07:13.442Z,3.27
2018-05-31T14:09:41.108Z,3.30
2018-05-31T14:12:08.781Z,2.80
2018-05-31T14:14:35.701Z,3.20
2018-05-31T14:17:02.615Z,3.50
2018-05-31T14:19:29.616Z,3.73
2018-05-31T14:21:57.293Z,4.37
2018-05-31T14:24:24.204Z,4.50
2018-05-31T14:26:51.176Z,4.23
2018-05-31T14:29:18.119Z,4.00
2018-05-31T14:31:45.768Z,4.50
2018-05-31T14:34:12.663Z,4.70
2018-05-31T14:36:39.596Z,4.57
2018-05-31T14:39:06.487Z,4.70
2018-05-31T14:41:33.441Z,4.13
2018-05-31T14:44:01.084Z,3.87
2018-05-31T14:46:28.058Z,4.80
2018-05-31T14:48:55.013Z,4.30
2018-05-31T14:51:21.949Z,5.30
2018-05-31T14:53:49.593Z,4.20
2018-05-31T14:56:16.520Z,4.37
2018-05-31T14:58:43.424Z,4.47
2018-05-31T15:01:10.349Z,4.60
2018-05-31T15:03:37.997Z,4.63
2018-05-31T15:06:04.908Z,5.07
2018-05-31T15:08:31.825Z,4.90
2018-05-31T15:10:58.723Z,5.93
2018-05-31T15:13:26.360Z,6.27
2018-05-31T15:15:53.259Z,6.43
2018-05-31T15:18:20.168Z,6.40
2018-05-31T15:20:47.120Z,7.07
2018-05-31T15:23:14.020Z,7.33
2018-05-31T15:25:40.919Z,7.70
2018-05-31T15:28:07.828Z,7.33
2018-05-31T15:30:34.731Z,6.43
2018-05-31T15:33:01.648Z,7.07
2018-05-31T15:35:28.553Z,6.93
2018-05-31T15:37:55.446Z,6.93
2018-05-31T15:40:22.361Z,6.97
2018-05-31T15:42:50.002Z,8.03
2018-05-31T15:45:16.905Z,7.43
2018-05-31T15:47:43.821Z,6.87
2018-05-31T15:50:11.911Z,7.40
2018-05-31T15:52:38.840Z,6.53
2018-05-31T15:55:05.763Z,7.10
2018-05-31T15:57:32.651Z,6.77
2018-05-31T15:59:59.593Z,6.67
2018-05-31T16:02:26.492Z,6.40
2018-05-31T16:04:53.405Z,6.43
2018-05-31T16:07:20.397Z,7.57
2018-05-31T16:09:48.039Z,6.07
2018-05-31T16:12:14.946Z,6.27
2018-05-31T16:14:41.871Z,7.37
2018-05-31T16:19:47.640Z,5.80
2018-05-31T16:22:15.717Z,5.83
2018-05-31T16:24:50.247Z,5.63
2018-05-31T16:27:17.176Z,6.10
2018-05-31T16:29:45.044Z,6.70
2018-05-31T16:32:13.440Z,5.53
2018-05-31T16:34:40.464Z,5.80
2018-05-31T16:37:08.168Z,4.70
2018-05-31T16:39:35.090Z,4.70
2018-05-31T16:42:02.021Z,4.57
2018-05-31T16:44:28.949Z,4.30
2018-05-31T16:46:55.893Z,3.80
2018-05-31T16:49:23.534Z,4.03
2018-05-31T16:51:50.529Z,4.50
2018-05-31T16:54:17.428Z,4.83
2018-05-31T16:56:44.324Z,4.53
2018-05-31T16:59:11.288Z,4.97
2018-05-31T17:01:38.181Z,5.50
2018-05-31T17:04:05.076Z,5.10
2018-05-31T17:06:31.972Z,4.47
2018-05-31T17:08:59.635Z,5.53
2018-05-31T17:11:27.286Z,4.33
2018-05-31T17:13:54.943Z,5.10
2018-05-31T17:16:21.865Z,4.83
2018-05-31T17:18:48.781Z,4.77
2018-05-31T17:21:15.682Z,5.33
2018-05-31T17:23:42.594Z,4.77
2018-05-31T17:26:09.501Z,4.83
2018-05-31T17:28:36.410Z,4.60
2018-05-31T17:31:03.378Z,5.17
2018-05-31T17:33:30.281Z,5.77
2018-05-31T17:35:57.220Z,5.27
2018-05-31T17:38:24.143Z,6.13
2018-05-31T17:40:51.092Z,5.17
2018-05-31T17:43:18.016Z,5.77
2018-05-31T17:45:44.928Z,6.00
2018-05-31T17:48:11.815Z,6.10
2018-05-31T17:50:38.709Z,6.23
2018-05-31T17:53:05.708Z,6.53
2018-05-31T17:55:32.669Z,6.13
2018-05-31T17:57:59.589Z,6.50
2018-05-31T18:00:26.489Z,6.60
2018-05-31T18:02:54.153Z,6.50
2018-05-31T18:05:21.810Z,7.07
2018-05-31T18:07:48.701Z,6.90
2018-05-31T18:10:15.649Z,7.40
2018-05-31T18:12:42.531Z,6.87
2018-05-31T18:15:09.475Z,7.60
2018-05-31T18:17:36.512Z,7.03
2018-05-31T18:20:03.605Z,7.50
2018-05-31T18:22:30.536Z,7.47
2018-05-31T18:24:58.273Z,7.43
2018-05-31T18:27:25.187Z,6.97
2018-05-31T18:29:52.120Z,7.20
2018-05-31T18:32:19.031Z,7.43
2018-05-31T18:34:46.702Z,7.30
2018-05-31T18:37:14.345Z,7.70
2018-05-31T18:39:41.255Z,8.10
2018-05-31T18:42:08.164Z,6.43
2018-05-31T18:44:35.080Z,6.80
2018-05-31T18:47:02.001Z,6.83
2018-05-31T18:49:28.917Z,7.10
2018-05-31T18:51:55.836Z,6.57
2018-05-31T18:54:22.896Z,7.00
2018-05-31T18:56:49.809Z,7.43
2018-05-31T18:59:16.706Z,6.97
2018-05-31T19:01:43.612Z,7.50
2018-05-31T19:04:10.568Z,7.40
2018-05-31T19:06:37.616Z,6.80
2018-05-31T19:09:07.065Z,7.27
2018-05-31T19:11:34.073Z,7.33
2018-05-31T19:14:00.980Z,6.90
2018-05-31T19:16:28.620Z,6.17
2018-05-31T19:19:01.440Z,6.37
2018-05-31T19:21:28.355Z,6.60
2018-05-31T19:23:55.312Z,7.47
2018-05-31T19:26:22.260Z,6.77
2018-05-31T19:28:49.987Z,5.93
2018-05-31T19:31:16.923Z,6.73
2018-05-31T19:33:43.832Z,6.03
2018-05-31T19:36:16.620Z,5.90
2018-05-31T19:38:43.535Z,5.83
2018-05-31T19:41:11.196Z,6.33
2018-05-31T19:43:44.087Z,5.60
2018-05-31T19:46:11.749Z,5.87
2018-05-31T19:48:39.396Z,6.20
2018-05-31T19:51:06.359Z,6.30
2018-05-31T19:53:40.109Z,6.50
2018-05-31T19:56:07.119Z,7.30
2018-05-31T19:58:39.997Z,6.57
2018-05-31T20:01:12.964Z,5.80
2018-05-31T20:03:39.956Z,5.93
2018-05-31T20:06:06.916Z,7.13
2018-05-31T20:08:33.816Z,6.40
2018-05-31T20:11:01.474Z,5.97
2018-05-31T20:13:29.104Z,6.30
2018-05-31T20:15:56.013Z,6.50
2018-05-31T20:18:22.916Z,6.03
2018-05-31T20:20:49.823Z,5.80
2018-05-31T20:23:24.803Z,6.03
2018-05-31T20:25:52.493Z,6.23
2018-05-31T20:28:19.427Z,6.73
2018-05-31T20:30:46.371Z,5.50
2018-05-31T20:33:14.026Z,6.00
2018-05-31T20:35:40.928Z,5.83
2018-05-31T20:38:07.893Z,6.43
2018-05-31T20:40:34.801Z,6.03
2018-05-31T20:43:01.809Z,7.30
2018-05-31T20:45:28.725Z,7.03
2018-05-31T20:47:55.680Z,6.93
2018-05-31T20:50:23.451Z,6.73
2018-05-31T20:52:51.134Z,6.87
2018-05-31T20:55:18.050Z,5.57
2018-05-31T20:57:45.824Z,5.53
2018-05-31T21:00:13.476Z,5.87
2018-05-31T21:02:41.332Z,5.97
2018-05-31T21:05:08.250Z,5.53
2018-05-31T21:07:35.253Z,5.80
2018-05-31T21:10:02.191Z,5.80
2018-05-31T21:12:29.821Z,5.93
2018-05-31T21:14:56.732Z,5.53
2018-05-31T21:17:23.648Z,6.00
2018-05-31T21:19:50.555Z,5.70
2018-05-31T21:22:17.450Z,6.20
2018-05-31T21:24:44.369Z,5.67
2018-05-31T21:27:11.299Z,6.40
2018-05-31T21:29:38.948Z,5.40
2018-05-31T21:32:05.905Z,6.33
2018-05-31T21:34:33.562Z,5.60
2018-05-31T21:37:00.479Z,6.23
2018-05-31T21:39:27.375Z,5.80
2018-05-31T21:41:55.024Z,5.63
2018-05-31T21:44:22.677Z,6.53
2018-05-31T21:46:49.577Z,5.60
2018-05-31T21:49:16.489Z,5.80
2018-05-31T21:51:43.384Z,6.60
2018-05-31T21:54:10.337Z,6.43
2018-05-31T21:56:37.360Z,5.90
2018-05-31T21:59:04.550Z,6.73
2018-05-31T22:01:32.212Z,6.20
2018-05-31T22:03:59.113Z,7.20
2018-05-31T22:06:26.009Z,7.20
2018-05-31T22:08:53.662Z,6.37
2018-05-31T22:11:20.640Z,6.63
2018-05-31T22:13:47.537Z,6.93
2018-05-31T22:16:14.548Z,6.30
2018-05-31T22:18:41.452Z,6.30
2018-05-31T22:21:10.521Z,6.37
2018-05-31T22:23:37.488Z,6.73
2018-05-31T22:26:05.165Z,7.07
2018-05-31T22:28:32.080Z,7.33
2018-05-31T22:30:58.984Z,6.30
2018-05-31T22:33:26.616Z,6.60
2018-05-31T22:35:53.564Z,6.53
2018-05-31T22:38:20.480Z,7.00
2018-05-31T22:40:47.398Z,6.23
2018-05-31T22:43:14.293Z,5.90
2018-05-31T22:45:41.190Z,6.00
2018-05-31T22:48:08.097Z,5.07
2018-05-31T22:50:35.021Z,5.07
2018-05-31T22:53:02.670Z,5.40
2018-05-31T22:55:30.320Z,5.20
2018-05-31T22:57:57.211Z,5.00
2018-05-31T23:00:24.176Z,5.23
2018-05-31T23:02:51.112Z,5.10
2018-05-31T23:05:18.015Z,4.83
2018-05-31T23:07:45.660Z,5.00
2018-05-31T23:10:13.320Z,5.93
2018-05-31T23:12:40.218Z,5.07
2018-05-31T23:15:07.183Z,5.37
2018-05-31T23:17:34.115Z,5.50
2018-05-31T23:20:01.033Z,4.90
2018-05-31T23:22:27.968Z,4.80
2018-05-31T23:24:54.892Z,5.30
2018-05-31T23:27:21.818Z,5.50
2018-05-31T23:29:48.726Z,4.20
2018-05-31T23:32:16.368Z,6.07
2018-05-31T23:34:43.276Z,4.97
2018-05-31T23:37:10.185Z,5.07
2018-05-31T23:39:37.090Z,4.97
2018-05-31T23:42:05.444Z,5.12
2018-05-31T23:44:32.344Z,5.93
2018-05-31T23:46:59.260Z,5.20
2018-05-31T23:49:26.923Z,5.03
2018-05-31T23:51:53.903Z,4.87
2018-05-31T23:54:20.838Z,5.50
2018-05-31T23:56:47.840Z,4.83
2018-05-31T23:59:15.535Z,5.27
